METAR Data
IDs: Format: Raw Decoded Include TAF

Data at: 0137 UTC 24 Sep 2018

KBCB 240115Z AUTO 10004KT 10SM OVC005 17/17 A3026 RMK AO2 T01700168
KBCB 240055Z AUTO 11003KT 10SM OVC005 17/17 A3025 RMK AO2 T01700170
KBCB 240035Z AUTO 08004KT 10SM OVC003 17/17 A3024 RMK AO2 T01680168
KBCB 240015Z AUTO 08005KT 7SM OVC003 17/17 A3023 RMK AO2 T01670167
KBCB 232355Z AUTO 09005KT 10SM OVC003 17/17 A3022 RMK AO2 T01670167 10183 20167
KBCB 232335Z AUTO 09004KT 5SM BR OVC003 17/17 A3022 RMK AO2 T01670167
KBCB 232315Z AUTO 08004KT 5SM BR OVC003 17/17 A3023 RMK AO2 T01670167
KBCB 232255Z AUTO 10006KT 4SM BR OVC003 17/17 A3022 RMK AO2 T01680168
KBCB 232235Z AUTO 09006KT 3SM BR OVC003 17/17 A3022 RMK AO2 T01690169
KBCB 232215Z AUTO 10006KT 3SM BR OVC003 17/17 A3022 RMK AO2 T01700170
KBCB 232155Z AUTO 10005KT 4SM BR OVC003 17/17 A3022 RMK AO2 T01710171
KBCB 232135Z AUTO 08003KT 5SM BR OVC003 17/17 A3021 RMK AO2 T01720172
KBCB 232115Z AUTO 08005KT 10SM OVC003 18/17 A3021 RMK AO2 T01750172
KBCB 232055Z AUTO 10005KT 10SM OVC005 18/17 A3021 RMK AO2 T01770173
KBCB 232035Z AUTO 09005KT 10SM OVC005 18/17 A3021 RMK AO2 T01790174
KBCB 232015Z AUTO 07003KT 10SM OVC005 18/18 A3020 RMK AO2 T01820175
KBCB 231955Z AUTO 04004KT 10SM OVC005 18/18 A3021 RMK AO2 T01820175
KBCB 231935Z AUTO 08006KT 10SM OVC005 18/17 A3020 RMK AO2 T01820174
KBCB 231915Z AUTO 08005KT 10SM OVC005 18/17 A3021 RMK AO2 T01800174
KBCB 231855Z AUTO 07004KT 10SM OVC005 18/17 A3022 RMK AO2 T01780173
KBCB 231835Z AUTO 05004KT 10SM OVC005 18/17 A3022 RMK AO2 T01760172
KBCB 231815Z AUTO 08004KT 10SM OVC005 18/17 A3022 RMK AO2 T01790174
KBCB 231755Z AUTO 07004KT 5SM BR OVC005 18/17 A3023 RMK AO2 T01760173 10178 20165
KBCB 231735Z AUTO 09005KT 7SM OVC005 18/17 A3023 RMK AO2 T01760172
KBCB 231715Z AUTO 10005KT 7SM OVC005 18/17 A3023 RMK AO2 T01750172
KBCB 231655Z AUTO 08005KT 10SM OVC005 18/17 A3023 RMK AO2 T01750171
KBCB 231635Z AUTO 08004KT 10SM OVC005 18/17 A3023 RMK AO2 T01750171
KBCB 231615Z AUTO 10006KT 10SM OVC005 18/17 A3024 RMK AO2 T01760170
KBCB 231555Z AUTO 08007KT 5SM BR OVC003 17/17 A3024 RMK AO2 T01720170
KBCB 231535Z AUTO 08005KT 7SM OVC003 17/17 A3024 RMK AO2 T01700170
KBCB 231515Z AUTO 10005KT 7SM OVC003 17/17 A3024 RMK AO2 T01700170
KBCB 231455Z AUTO 09005KT 4SM BR OVC003 17/17 A3024 RMK AO2 T01700170
KBCB 231435Z AUTO 09004KT 2SM BR OVC003 17/17 A3024 RMK AO2 T01690169
KBCB 231415Z AUTO 09006KT 3SM BR OVC003 17/17 A3023 RMK AO2 T01680168
KBCB 231355Z AUTO 07004KT 1 1/2SM BR OVC003 17/17 A3023 RMK AO2 T01670167
KBCB 231335Z AUTO 06003KT 1 1/2SM BR OVC003 17/17 A3023 RMK AO2 T01680168
KBCB 231315Z AUTO 05003KT 1 3/4SM BR OVC003 17/17 A3022 RMK AO2 T01670167
KBCB 231255Z AUTO 09004KT 2 1/2SM BR OVC003 17/17 A3021 RMK AO2 T01660166
KBCB 231235Z AUTO 09004KT 3SM BR OVC003 17/17 A3021 RMK AO2 T01650165
KBCB 231215Z AUTO 12004KT 3SM BR OVC003 17/17 A3021 RMK AO2 T01660166
KBCB 231155Z AUTO 06003KT 3SM BR OVC003 17/17 A3020 RMK AO2 60001 70217 T01670167 10174 20165
KBCB 231135Z AUTO 07003KT 3SM BR OVC003 17/17 A3020 RMK AO2 T01660166
KBCB 231115Z AUTO 00000KT 10SM OVC003 17/17 A3020 RMK AO2 T01660166
KBCB 231055Z AUTO 00000KT 10SM OVC003 17/17 A3020 RMK AO2 T01650165
KBCB 231035Z AUTO 11003KT 10SM OVC003 17/17 A3020 RMK AO2 T01650165
KBCB 231015Z AUTO 11003KT 10SM OVC003 17/17 A3019 RMK AO2 T01650165
KBCB 230955Z AUTO 12003KT 7SM OVC003 17/17 A3018 RMK AO2 T01650165
KBCB 230935Z AUTO 12003KT 10SM OVC005 17/17 A3020 RMK AO2 T01660166
KBCB 230915Z AUTO 00000KT 10SM OVC005 17/17 A3020 RMK AO2 T01650165
KBCB 230900Z AUTO 00000KT 10SM OVC005 17/17 A3020 RMK AO2 T01650165
KBCB 230835Z AUTO 11005KT 10SM OVC007 17/17 A3018 RMK AO2 T01670166
KBCB 230815Z AUTO 00000KT 10SM BKN007 OVC015 17/17 A3020 RMK AO2 T01670165
KBCB 230755Z AUTO 09006KT 10SM BKN007 OVC013 17/17 A3020 RMK AO2 T01660165
KBCB 230735Z AUTO 12005KT 10SM BKN009 OVC013 17/17 A3020 RMK AO2 T01670165
KBCB 230715Z AUTO 08004KT 10SM BKN006 OVC013 17/17 A3020 RMK AO2 T01680165
KBCB 230655Z AUTO 11006KT 10SM OVC006 17/17 A3020 RMK AO2 P0001 T01700169
KBCB 230635Z AUTO 08006KT 10SM OVC006 17/17 A3020 RMK AO2 P0001 T01700170
KBCB 230615Z AUTO 11004KT 10SM OVC006 17/17 A3021 RMK AO2 P0001 T01730173
KBCB 230555Z AUTO 09004KT 10SM RA OVC004 17/17 A3021 RMK AO2 P0003 60162 T01740174 10211 20174
KBCB 230535Z AUTO 07005KT 10SM -RA OVC004 18/18 A3021 RMK AO2 P0003 T01770177
KBCB 230515Z AUTO 07004KT 10SM -RA OVC006 18/18 A3021 RMK AO2 P0001 T01800180
KBCB 230455Z AUTO 06005KT 7SM RA SCT004 BKN008 OVC032 18/18 A3022 RMK AO2 P0040 T01810181 402760178
KBCB 230435Z AUTO 08003KT 5SM RA SCT004 BKN008 OVC015 18/18 A3022 RMK AO2 P0036 T01830183
KBCB 230415Z AUTO 00000KT 1 3/4SM +RA OVC004 19/19 A3023 RMK AO2 P0019 T01860186
KBCB 230350Z AUTO 08006KT 4SM +RA SCT005 BKN024 OVC060 19/19 A3022 RMK AO2 P0035 T01900190
KBCB 230335Z AUTO 10007KT 1 1/2SM +RA BKN005 BKN008 OVC024 19/19 A3022 RMK AO2 P0024 T01920191
KBCB 230315Z AUTO 06006KT 10SM -RA SCT007 BKN016 OVC041 19/19 A3021 RMK AO2 LTG DSNT SE P0002 T01920191
KBCB 230255Z AUTO 10010KT 4SM RA SCT017 BKN028 OVC047 19/19 A3020 RMK AO2 P0083 60083 T01940193
KBCB 230235Z AUTO 10009KT 1 1/2SM +RA BKN004 BKN012 OVC018 20/20 A3021 RMK AO2 P0056 T01960195
KBCB 230215Z AUTO 07005KT 4SM +RA BKN006 OVC010 20/20 A3020 RMK AO2 LTG DSNT SE P0008 T02020200
KBCB 230155Z AUTO 09008KT 10SM VCTS BKN010 OVC027 21/20 A3019 RMK AO2 LTG DSNT E AND SE T02080200
KBCB 230135Z AUTO 08009KT 10SM BKN007 BKN010 OVC027 21/21 A3019 RMK AO2 LTG DSNT SE T02100205
KBCB 230115Z AUTO 08007KT 10SM VCTS BKN007 BKN026 OVC050 21/21 A3019 RMK AO2 LTG DSNT N SE AND NW T02110210
KBCB 230055Z AUTO 06006KT 10SM -RA SCT007 BKN050 OVC070 21/21 A3017 RMK AO2 LTG DSNT SE AND NW T02110210
KBCB 230035Z AUTO 10003KT 10SM -DZ SCT009 BKN060 OVC090 21/21 A3017 RMK AO2 LTG DSNT E SE AND NW T02100210
KBCB 230015Z AUTO 10004KT 10SM VCTSRA SCT009 BKN028 OVC100 21/21 A3017 RMK AO2 LTG DSNT E AND SE T02100208
KBCB 222355Z AUTO 11003KT 10SM BKN009 BKN013 OVC033 21/21 A3017 RMK AO2 LTG DSNT E AND SE 60054 T02110206 10276 20211
KBCB 222335Z AUTO 14004KT 10SM SCT009 BKN035 OVC048 21/21 A3018 RMK AO2 T02130207
KBCB 222315Z AUTO 00000KT 10SM SCT008 SCT035 BKN048 22/21 A3017 RMK AO2 T02150206
KBCB 222255Z AUTO 10004KT 10SM CLR 22/21 A3016 RMK AO2 LTG DSNT SE T02180213
KBCB 222235Z AUTO 06003KT 10SM SCT007 SCT012 BKN080 22/22 A3015 RMK AO2 LTG DSNT SE T02200215
KBCB 222215Z AUTO 10007KT 10SM SCT011 OVC080 22/22 A3016 RMK AO2 LTG DSNT E T02220215
KBCB 222155Z AUTO 11004KT 10SM VCTS BKN011 BKN070 22/21 A3017 RMK AO2 T02210210
KBCB 222135Z AUTO 09003KT 10SM SCT033 SCT050 SCT070 23/21 A3016 RMK AO2 LTG DSNT E AND S T02250207
KBCB 222115Z AUTO 09003KT 10SM -DZ SCT031 BKN080 OVC100 22/22 A3015 RMK AO2 T02230215
KBCB 222055Z AUTO 00000KT 10SM -DZ SCT050 SCT070 OVC090 22/21 A3015 RMK AO2 LTG DSNT E AND SE P0003 60054 T02210210
KBCB 222035Z AUTO 00000KT 10SM -VCTSRA SCT050 OVC090 22/21 A3016 RMK AO2 LTG DSNT SE P0003 T02180207
KBCB 222015Z AUTO 04003KT 7SM -RA SCT050 SCT065 OVC090 21/20 A3016 RMK AO2 P0002 T02120204
KBCB 221955Z AUTO 01008KT 2 1/2SM +RA SCT020 BKN029 OVC050 21/20 A3017 RMK AO2 P0050 T02120200
KBCB 221935Z AUTO 32006G15KT 2 1/2SM +RA BKN031 OVC038 23/20 A3017 RMK AO2 P0014 T02280199
KBCB 221915Z AUTO 03004KT 10SM BKN030 OVC038 25/19 A3016 RMK AO2 T02450192
KBCB 221855Z AUTO 01007G15KT 10SM BKN030 BKN035 OVC045 25/20 A3017 RMK AO2 T02490204
KBCB 221835Z AUTO 10006KT 10SM SCT033 BKN045 OVC110 26/21 A3017 RMK AO2 T02640208
KBCB 221815Z AUTO 10006KT 10SM SCT033 BKN041 OVC110 27/21 A3018 RMK AO2 T02660214
KBCB 221755Z AUTO 10004KT 10SM BKN033 BKN055 OVC100 27/20 A3018 RMK AO2 T02660204 10275 20187
KBCB 221735Z AUTO 00000KT 10SM SCT037 BKN047 OVC100 27/20 A3020 RMK AO2 T02650199
KBCB 221715Z AUTO 00000KT 10SM SCT029 OVC043 27/20 A3020 RMK AO2 T02700204
KBCB 221655Z AUTO 00000KT 10SM OVC029 26/21 A3020 RMK AO2 T02610208
KBCB 221635Z AUTO 00000KT 10SM OVC027 26/20 A3021 RMK AO2 T02620204
KBCB 221615Z AUTO 00000KT 10SM OVC025 26/20 A3021 RMK AO2 T02570203
KBCB 221555Z AUTO 00000KT 10SM SCT025 BKN035 BKN110 27/21 A3021 RMK AO2 T02660212
KBCB 221535Z AUTO 00000KT 10SM SCT110 26/21 A3022 RMK AO2 T02570206
KBCB 221515Z AUTO 00000KT 10SM SCT110 25/21 A3022 RMK AO2 T02520206
KBCB 221455Z AUTO 22003KT 10SM CLR 25/20 A3022 RMK AO2 T02460204
KBCB 221435Z AUTO 00000KT 10SM CLR 25/21 A3022 RMK AO2 T02450206
KBCB 221415Z AUTO 27004KT 10SM CLR 24/21 A3022 RMK AO2 T02400205
KBCB 221355Z AUTO 00000KT 10SM CLR 24/21 A3022 RMK AO2 T02370206